New Yoshino — JG5527 — position and weather

sailwx.info

Track history (hours):
 
Tides and Currents Weather Stations Pressure Air Temp Water Temp Dewpoint Dewpoint Depression Visibility Wind Speed Wind Dir Waves Ship Positions

New Yoshino

Last reported at 2017-Aug-23 00:01 UTC. Time now 2017-Aug-23 06:21 UTC.
Position N 35°32' E 140°03'.

Length 102 m; draft 6.2 m.

Type: Tanker. MMSI: 431300724.

Date/timePositionNaut miles runAvg speedWind from/ knotsBaromVisibWave heightAir tempDewpointWater temp
2017-Aug-23 00:01N 35°32' E 140°03'0 0.0
2017-Aug-23 00:01N 35°32' E 140°03'2 3.7
2017-Aug-22 23:30N 35°32' E 140°01'510.5
2017-Aug-22 23:00N 35°29' E 139°55'1 1.2
2017-Aug-22 22:25N 35°29' E 139°55'0 0.0
2017-Aug-22 21:43N 35°29' E 139°55'0 0.0
2017-Aug-22 21:28N 35°29' E 139°55'0 0.0
2017-Aug-22 20:58N 35°29' E 139°55'0 0.0
2017-Aug-22 20:28N 35°29' E 139°55'0 0.1
2017-Aug-22 19:58N 35°29' E 139°55'0 0.0
2017-Aug-22 19:25N 35°29' E 139°55'0 0.1
2017-Aug-22 18:58N 35°29' E 139°55'0 0.0
2017-Aug-22 18:28N 35°29' E 139°55'0 0.0
2017-Aug-22 17:55N 35°29' E 139°55'0 0.0
2017-Aug-22 17:28N 35°29' E 139°55'0 0.0
2017-Aug-22 16:58N 35°29' E 139°55'0 0.0
2017-Aug-22 16:28N 35°29' E 139°55'0 0.0
2017-Aug-22 15:58N 35°29' E 139°55'0 0.0
2017-Aug-22 15:28N 35°29' E 139°55'0 0.2
2017-Aug-22 15:01N 35°29' E 139°55'4 8.7
2017-Aug-22 14:31N 35°27' E 139°50'612.6
2017-Aug-22 14:01N 35°22' E 139°45'511.0
2017-Aug-22 13:31N 35°17' E 139°46'612.0
2017-Aug-22 13:00N 35°11' E 139°47'24611.9
2017-Aug-21 16:22N 34°01' E 134°60'513.6
2017-Aug-21 16:00N 34°06' E 134°59'714.2
2017-Aug-21 15:30N 34°13' E 134°58'713.1
2017-Aug-21 14:57N 34°21' E 134°60'812.1
2017-Aug-21 14:16N 34°26' E 135°07'412.7
2017-Aug-21 13:56N 34°28' E 135°12'612.6
2017-Aug-21 13:29N 34°31' E 135°17'510.5
2017-Aug-21 13:00N 34°33' E 135°23'2 0.1
2017-Aug-20 23:15N 34°32' E 135°25'0 0.4
2017-Aug-20 23:00N 34°32' E 135°25'3 5.5
2017-Aug-20 22:29N 34°33' E 135°22'2 1.9
2017-Aug-20 21:09N 34°33' E 135°19'0 0.0
2017-Aug-20 20:45N 34°33' E 135°19'0 0.0
2017-Aug-20 20:27N 34°33' E 135°19'0 0.0
2017-Aug-20 19:57N 34°33' E 135°19'0 0.0
2017-Aug-20 18:33N 34°33' E 135°19'0 0.0
2017-Aug-20 17:45N 34°33' E 135°19'0 0.0
2017-Aug-20 17:27N 34°33' E 135°19'0 0.0
2017-Aug-20 15:15N 34°33' E 135°19'0 0.0
2017-Aug-20 14:45N 34°33' E 135°19'0 0.0
2017-Aug-20 09:45N 34°33' E 135°19'2 7.1
2017-Aug-20 09:29N 34°33' E 135°16'612.1
2017-Aug-20 09:00N 34°36' E 135°10'3 5.8
2017-Aug-20 08:29N 34°39' E 135°08'0 0.0
2017-Aug-20 07:59N 34°39' E 135°08'0 0.0
2017-Aug-20 07:28N 34°39' E 135°08'0 0.0
2017-Aug-20 06:59N 34°39' E 135°08'0 0.0
2017-Aug-20 06:29N 34°39' E 135°08'0 0.0
2017-Aug-20 05:59N 34°39' E 135°08'0 0.0
2017-Aug-20 05:29N 34°39' E 135°08'0 0.0
2017-Aug-20 04:47N 34°39' E 135°08'0 0.0
2017-Aug-20 04:29N 34°39' E 135°08'0 0.0
2017-Aug-20 03:59N 34°39' E 135°08'0 0.0
2017-Aug-20 03:29N 34°39' E 135°08'0 0.0
2017-Aug-20 02:59N 34°39' E 135°08'0 0.1
2017-Aug-20 02:30N 34°39' E 135°08'1 2.7
2017-Aug-20 02:00N 34°37' E 135°08'3 7.0
2017-Aug-20 01:30N 34°34' E 135°06'612.5
2017-Aug-20 01:00N 34°28' E 135°04'613.0
2017-Aug-20 00:30N 34°22' E 135°01'612.5
2017-Aug-20 00:00N 34°16' E 134°59'713.4
2017-Aug-19 23:30N 34°09' E 134°60'713.2
2017-Aug-19 22:58N 34°02' E 135°00'  
2017-Aug-14 08:25N 34°51' E 139°48'612.0
2017-Aug-14 07:54N 34°55' E 139°43'513.4
2017-Aug-14 07:30N 35°01' E 139°43'713.9
2017-Aug-14 07:00N 35°07' E 139°44'713.5
2017-Aug-14 06:30N 35°14' E 139°46'612.5
2017-Aug-14 06:01N 35°20' E 139°43'612.3
2017-Aug-14 05:30N 35°26' E 139°45'713.4
2017-Aug-14 05:00N 35°29' E 139°52'612.2
2017-Aug-14 04:30N 35°30' E 139°59'2 0.3
2017-Aug-13 22:01N 35°28' E 140°01'0 1.8
2017-Aug-13 21:50N 35°29' E 140°01'2 6.8
2017-Aug-13 21:29N 35°30' E 139°58'0 1.0
2017-Aug-13 20:59N 35°30' E 139°58'0 0.0
2017-Aug-13 20:29N 35°30' E 139°58'0 0.1
2017-Aug-13 20:00N 35°30' E 139°58'4 8.9
2017-Aug-13 19:30N 35°29' E 139°53'613.0
2017-Aug-13 19:00N 35°25' E 139°47'612.0
2017-Aug-13 18:30N 35°19' E 139°44'612.1
2017-Aug-13 18:00N 35°13' E 139°47'713.0
2017-Aug-13 17:30N 35°07' E 139°46'713.6
2017-Aug-13 17:00N 35°01' E 139°44'712.8
2017-Aug-13 16:29N 34°54' E 139°45'  
Track history (hours):
 
Tides and Currents Weather Stations Pressure Air Temp Water Temp Dewpoint Dewpoint Depression Visibility Wind Speed Wind Dir Waves Ship Positions

New Yoshino

Last reported at 2017-Aug-23 00:01 UTC. Time now 2017-Aug-23 06:21 UTC.
Position N 35°32' E 140°03'.

Length 102 m; draft 6.2 m.

Type: Tanker. MMSI: 431300724.

Date/timePositionNaut miles runAvg speedWind from/ knotsBaromVisibWave heightAir tempDewpointWater temp
2017-Aug-23 00:01N 35°32' E 140°03'0 0.0
2017-Aug-23 00:01N 35°32' E 140°03'2 3.7
2017-Aug-22 23:30N 35°32' E 140°01'510.5
2017-Aug-22 23:00N 35°29' E 139°55'1 1.2
2017-Aug-22 22:25N 35°29' E 139°55'0 0.0
2017-Aug-22 21:43N 35°29' E 139°55'0 0.0
2017-Aug-22 21:28N 35°29' E 139°55'0 0.0
2017-Aug-22 20:58N 35°29' E 139°55'0 0.0
2017-Aug-22 20:28N 35°29' E 139°55'0 0.1
2017-Aug-22 19:58N 35°29' E 139°55'0 0.0
2017-Aug-22 19:25N 35°29' E 139°55'0 0.1
2017-Aug-22 18:58N 35°29' E 139°55'0 0.0
2017-Aug-22 18:28N 35°29' E 139°55'0 0.0
2017-Aug-22 17:55N 35°29' E 139°55'0 0.0
2017-Aug-22 17:28N 35°29' E 139°55'0 0.0
2017-Aug-22 16:58N 35°29' E 139°55'0 0.0
2017-Aug-22 16:28N 35°29' E 139°55'0 0.0
2017-Aug-22 15:58N 35°29' E 139°55'0 0.0
2017-Aug-22 15:28N 35°29' E 139°55'0 0.2
2017-Aug-22 15:01N 35°29' E 139°55'4 8.7
2017-Aug-22 14:31N 35°27' E 139°50'612.6
2017-Aug-22 14:01N 35°22' E 139°45'511.0
2017-Aug-22 13:31N 35°17' E 139°46'612.0
2017-Aug-22 13:00N 35°11' E 139°47'24611.9
2017-Aug-21 16:22N 34°01' E 134°60'513.6
2017-Aug-21 16:00N 34°06' E 134°59'714.2
2017-Aug-21 15:30N 34°13' E 134°58'713.1
2017-Aug-21 14:57N 34°21' E 134°60'812.1
2017-Aug-21 14:16N 34°26' E 135°07'412.7
2017-Aug-21 13:56N 34°28' E 135°12'612.6
2017-Aug-21 13:29N 34°31' E 135°17'510.5
2017-Aug-21 13:00N 34°33' E 135°23'2 0.1
2017-Aug-20 23:15N 34°32' E 135°25'0 0.4
2017-Aug-20 23:00N 34°32' E 135°25'3 5.5
2017-Aug-20 22:29N 34°33' E 135°22'2 1.9
2017-Aug-20 21:09N 34°33' E 135°19'0 0.0
2017-Aug-20 20:45N 34°33' E 135°19'0 0.0
2017-Aug-20 20:27N 34°33' E 135°19'0 0.0
2017-Aug-20 19:57N 34°33' E 135°19'0 0.0
2017-Aug-20 18:33N 34°33' E 135°19'0 0.0
2017-Aug-20 17:45N 34°33' E 135°19'0 0.0
2017-Aug-20 17:27N 34°33' E 135°19'0 0.0
2017-Aug-20 15:15N 34°33' E 135°19'0 0.0
2017-Aug-20 14:45N 34°33' E 135°19'0 0.0
2017-Aug-20 09:45N 34°33' E 135°19'2 7.1
2017-Aug-20 09:29N 34°33' E 135°16'612.1
2017-Aug-20 09:00N 34°36' E 135°10'3 5.8
2017-Aug-20 08:29N 34°39' E 135°08'0 0.0
2017-Aug-20 07:59N 34°39' E 135°08'0 0.0
2017-Aug-20 07:28N 34°39' E 135°08'0 0.0
2017-Aug-20 06:59N 34°39' E 135°08'0 0.0
2017-Aug-20 06:29N 34°39' E 135°08'0 0.0
2017-Aug-20 05:59N 34°39' E 135°08'0 0.0
2017-Aug-20 05:29N 34°39' E 135°08'0 0.0
2017-Aug-20 04:47N 34°39' E 135°08'0 0.0
2017-Aug-20 04:29N 34°39' E 135°08'0 0.0
2017-Aug-20 03:59N 34°39' E 135°08'0 0.0
2017-Aug-20 03:29N 34°39' E 135°08'0 0.0
2017-Aug-20 02:59N 34°39' E 135°08'0 0.1
2017-Aug-20 02:30N 34°39' E 135°08'1 2.7
2017-Aug-20 02:00N 34°37' E 135°08'3 7.0
2017-Aug-20 01:30N 34°34' E 135°06'612.5
2017-Aug-20 01:00N 34°28' E 135°04'613.0
2017-Aug-20 00:30N 34°22' E 135°01'612.5
2017-Aug-20 00:00N 34°16' E 134°59'713.4
2017-Aug-19 23:30N 34°09' E 134°60'713.2
2017-Aug-19 22:58N 34°02' E 135°00'  
2017-Aug-14 08:25N 34°51' E 139°48'612.0
2017-Aug-14 07:54N 34°55' E 139°43'513.4
2017-Aug-14 07:30N 35°01' E 139°43'713.9
2017-Aug-14 07:00N 35°07' E 139°44'713.5
2017-Aug-14 06:30N 35°14' E 139°46'612.5
2017-Aug-14 06:01N 35°20' E 139°43'612.3
2017-Aug-14 05:30N 35°26' E 139°45'713.4
2017-Aug-14 05:00N 35°29' E 139°52'612.2
2017-Aug-14 04:30N 35°30' E 139°59'2 0.3
2017-Aug-13 22:01N 35°28' E 140°01'0 1.8
2017-Aug-13 21:50N 35°29' E 140°01'2 6.8
2017-Aug-13 21:29N 35°30' E 139°58'0 1.0
2017-Aug-13 20:59N 35°30' E 139°58'0 0.0
2017-Aug-13 20:29N 35°30' E 139°58'0 0.1
2017-Aug-13 20:00N 35°30' E 139°58'4 8.9
2017-Aug-13 19:30N 35°29' E 139°53'613.0
2017-Aug-13 19:00N 35°25' E 139°47'612.0
2017-Aug-13 18:30N 35°19' E 139°44'612.1
2017-Aug-13 18:00N 35°13' E 139°47'713.0
2017-Aug-13 17:30N 35°07' E 139°46'713.6
2017-Aug-13 17:00N 35°01' E 139°44'712.8
2017-Aug-13 16:29N 34°54' E 139°45'  

Dump ship's entire track history